Poltava, Ukraine
Current Conditions -  °F | °C
As of 5:30 AM on Friday 21 Nov 2014 (Local Time) from UKHH Reporting Station
Clear Clear  
Wind Chill: 18°   Ceiling: Unl
Heat Index: 27°   Visibility: 6mi
Dew Point: 12°   Wind: 9mph
Humidity: 55%   Direction: 80°E
Pressure: 30.39"   Gusts: NA
Location:  49.58°N, 34.57°E
Report Text: UKHH 210230Z 08004MPS CAVOK M03/M11 Q1029 070///65 NOSIG
Loading
Personal Weather Stations






























Interactive Weather Map New forecast layout! Learn more

10-Day Weather Forecast

Advertisements
Track Severe Weather on mobile